Terminal Aerodrome Forecast
Issued by NWS

Current Version | Previous Version | Text Only | Print | Product List | Glossary On
Versions: 1 2 3 4 5 6 7 8 9 10 11 12 13 14
000
FTUS45 KRIW 251800 AAA
TAFJAC
TAF AMD
KJAC 251804Z 2518/2618 35015G25KT 1SM -SN OVC007
      TEMPO 2518/2522 1/2SM SN
     FM252200 05010KT P6SM VCSH SCT030 BKN050
     FM260500 03012KT P6SM SCT050 BKN080
     FM261200 01006KT P6SM BKN080
      AMD LTD TO CLD VIS AND WIND=

USA.gov is the U.S. government's official web portal to all federal, state and local government web resources and services.